sensor_id;sensor_type;location;lat;lon;timestamp;pressure;altitude;pressure_sealevel;temperature;humidity
68107;BME280;54892;47.488;19.026;2022-08-21T00:00:55;99388.25;;;20.79;78.30
68107;BME280;54892;47.488;19.026;2022-08-21T00:04:04;99387.56;;;20.82;77.61
68107;BME280;54892;47.488;19.026;2022-08-21T00:07:07;99389.59;;;20.85;77.81
68107;BME280;54892;47.488;19.026;2022-08-21T00:10:11;99392.63;;;20.83;77.90
68107;BME280;54892;47.488;19.026;2022-08-21T00:13:14;99400.66;;;20.83;77.76
68107;BME280;54892;47.488;19.026;2022-08-21T00:16:18;99393.97;;;20.65;78.28
68107;BME280;54892;47.488;19.026;2022-08-21T00:19:22;99381.88;;;20.71;78.20
68107;BME280;54892;47.488;19.026;2022-08-21T00:22:26;99382.88;;;20.79;78.17
68107;BME280;54892;47.488;19.026;2022-08-21T00:25:29;99375.84;;;20.74;77.78
68107;BME280;54892;47.488;19.026;2022-08-21T00:28:32;99376.09;;;20.69;77.78
68107;BME280;54892;47.488;19.026;2022-08-21T00:31:36;99378.31;;;20.79;77.14
68107;BME280;54892;47.488;19.026;2022-08-21T00:34:40;99386.38;;;20.67;77.62
68107;BME280;54892;47.488;19.026;2022-08-21T00:37:44;99386.03;;;20.56;78.13
68107;BME280;54892;47.488;19.026;2022-08-21T00:40:51;99388.06;;;20.59;77.85
68107;BME280;54892;47.488;19.026;2022-08-21T00:43:55;99376.53;;;20.59;77.98
68107;BME280;54892;47.488;19.026;2022-08-21T00:46:58;99387.59;;;20.57;78.03
68107;BME280;54892;47.488;19.026;2022-08-21T00:50:03;99384.03;;;20.53;78.12
68107;BME280;54892;47.488;19.026;2022-08-21T00:53:07;99388.38;;;20.58;77.95
68107;BME280;54892;47.488;19.026;2022-08-21T00:56:10;99388.28;;;20.54;78.27
68107;BME280;54892;47.488;19.026;2022-08-21T00:59:15;99382.91;;;20.54;78.31
68107;BME280;54892;47.488;19.026;2022-08-21T01:02:18;99385.38;;;20.59;77.82
68107;BME280;54892;47.488;19.026;2022-08-21T01:05:24;99380.69;;;20.56;77.89
68107;BME280;54892;47.488;19.026;2022-08-21T01:08:27;99388.50;;;20.49;78.01
68107;BME280;54892;47.488;19.026;2022-08-21T01:11:30;99382.38;;;20.48;78.10
68107;BME280;54892;47.488;19.026;2022-08-21T01:14:34;99388.41;;;20.45;78.29
68107;BME280;54892;47.488;19.026;2022-08-21T01:17:36;99385.06;;;20.36;78.50
68107;BME280;54892;47.488;19.026;2022-08-21T01:20:43;99387.75;;;20.36;78.63
68107;BME280;54892;47.488;19.026;2022-08-21T01:23:50;99383.50;;;20.35;78.59
68107;BME280;54892;47.488;19.026;2022-08-21T01:26:54;99381.38;;;20.41;78.43
68107;BME280;54892;47.488;19.026;2022-08-21T01:29:58;99371.66;;;20.36;78.51
68107;BME280;54892;47.488;19.026;2022-08-21T01:33:02;99369.09;;;20.39;78.35
68107;BME280;54892;47.488;19.026;2022-08-21T01:36:06;99375.56;;;20.38;78.61
68107;BME280;54892;47.488;19.026;2022-08-21T01:39:11;99375.47;;;20.35;78.78
68107;BME280;54892;47.488;19.026;2022-08-21T01:42:14;99374.56;;;20.31;78.88
68107;BME280;54892;47.488;19.026;2022-08-21T01:45:17;99373.34;;;20.28;79.09
68107;BME280;54892;47.488;19.026;2022-08-21T01:48:20;99387.50;;;20.29;79.15
68107;BME280;54892;47.488;19.026;2022-08-21T01:51:23;99375.22;;;20.15;79.43
68107;BME280;54892;47.488;19.026;2022-08-21T01:54:28;99372.56;;;20.15;79.53
68107;BME280;54892;47.488;19.026;2022-08-21T01:57:31;99368.09;;;20.07;79.60
68107;BME280;54892;47.488;19.026;2022-08-21T02:00:35;99361.63;;;20.08;79.72
68107;BME280;54892;47.488;19.026;2022-08-21T02:03:39;99365.53;;;20.11;79.45
68107;BME280;54892;47.488;19.026;2022-08-21T02:06:42;99366.19;;;20.20;79.30
68107;BME280;54892;47.488;19.026;2022-08-21T02:09:47;99368.66;;;20.13;79.79
68107;BME280;54892;47.488;19.026;2022-08-21T02:12:50;99373.00;;;20.17;79.27
68107;BME280;54892;47.488;19.026;2022-08-21T02:15:54;99380.81;;;20.10;79.67
68107;BME280;54892;47.488;19.026;2022-08-21T02:18:57;99371.19;;;20.09;79.63
68107;BME280;54892;47.488;19.026;2022-08-21T02:22:00;99372.19;;;20.17;79.45
68107;BME280;54892;47.488;19.026;2022-08-21T02:25:05;99376.69;;;20.13;79.41
68107;BME280;54892;47.488;19.026;2022-08-21T02:28:10;99371.44;;;20.04;79.71
68107;BME280;54892;47.488;19.026;2022-08-21T02:31:13;99372.53;;;19.90;80.20
68107;BME280;54892;47.488;19.026;2022-08-21T02:34:16;99379.03;;;20.02;79.81
68107;BME280;54892;47.488;19.026;2022-08-21T02:37:21;99375.13;;;20.12;79.47
68107;BME280;54892;47.488;19.026;2022-08-21T02:40:27;99368.75;;;20.16;79.48
68107;BME280;54892;47.488;19.026;2022-08-21T02:43:32;99362.50;;;20.12;79.25
68107;BME280;54892;47.488;19.026;2022-08-21T02:46:35;99363.97;;;20.10;79.39
68107;BME280;54892;47.488;19.026;2022-08-21T02:49:39;99359.16;;;20.15;79.36
68107;BME280;54892;47.488;19.026;2022-08-21T02:52:42;99352.91;;;20.23;79.16
68107;BME280;54892;47.488;19.026;2022-08-21T02:55:48;99345.31;;;20.13;79.25
68107;BME280;54892;47.488;19.026;2022-08-21T02:58:52;99341.62;;;20.05;79.64
68107;BME280;54892;47.488;19.026;2022-08-21T03:01:55;99346.22;;;20.17;79.33
68107;BME280;54892;47.488;19.026;2022-08-21T03:04:58;99343.44;;;20.14;79.67
68107;BME280;54892;47.488;19.026;2022-08-21T03:08:02;99349.09;;;20.12;79.55
68107;BME280;54892;47.488;19.026;2022-08-21T03:11:06;99363.06;;;19.93;80.70
68107;BME280;54892;47.488;19.026;2022-08-21T03:14:10;99357.59;;;20.02;80.08
68107;BME280;54892;47.488;19.026;2022-08-21T03:17:12;99347.22;;;20.00;80.20
68107;BME280;54892;47.488;19.026;2022-08-21T03:20:16;99341.72;;;19.97;80.25
68107;BME280;54892;47.488;19.026;2022-08-21T03:23:20;99351.69;;;19.96;80.28
68107;BME280;54892;47.488;19.026;2022-08-21T03:26:24;99353.00;;;20.02;79.94
68107;BME280;54892;47.488;19.026;2022-08-21T03:29:28;99359.81;;;20.00;80.20
68107;BME280;54892;47.488;19.026;2022-08-21T03:32:31;99355.75;;;19.81;80.86
68107;BME280;54892;47.488;19.026;2022-08-21T03:35:34;99359.81;;;19.87;80.95
68107;BME280;54892;47.488;19.026;2022-08-21T03:38:37;99357.44;;;19.86;80.75
68107;BME280;54892;47.488;19.026;2022-08-21T03:41:41;99360.37;;;19.93;80.63
68107;BME280;54892;47.488;19.026;2022-08-21T03:44:44;99366.25;;;19.86;80.96
68107;BME280;54892;47.488;19.026;2022-08-21T03:47:52;99363.41;;;19.91;80.75
68107;BME280;54892;47.488;19.026;2022-08-21T03:50:55;99355.53;;;19.86;80.68
68107;BME280;54892;47.488;19.026;2022-08-21T03:53:58;99368.06;;;19.95;80.66
68107;BME280;54892;47.488;19.026;2022-08-21T03:57:02;99367.41;;;19.98;80.47
68107;BME280;54892;47.488;19.026;2022-08-21T04:00:07;99373.09;;;19.96;80.91
68107;BME280;54892;47.488;19.026;2022-08-21T04:03:11;99365.84;;;19.97;80.58
68107;BME280;54892;47.488;19.026;2022-08-21T04:06:15;99363.72;;;20.02;80.64
68107;BME280;54892;47.488;19.026;2022-08-21T04:09:19;99368.06;;;19.95;80.71
68107;BME280;54892;47.488;19.026;2022-08-21T04:12:23;99374.22;;;19.95;80.78
68107;BME280;54892;47.488;19.026;2022-08-21T04:15:26;99379.47;;;20.16;79.78
68107;BME280;54892;47.488;19.026;2022-08-21T04:18:30;99381.25;;;20.00;80.29
68107;BME280;54892;47.488;19.026;2022-08-21T04:21:33;99378.78;;;19.95;80.56
68107;BME280;54892;47.488;19.026;2022-08-21T04:24:36;99379.69;;;19.99;80.62
68107;BME280;54892;47.488;19.026;2022-08-21T04:27:41;99379.69;;;19.99;80.61
68107;BME280;54892;47.488;19.026;2022-08-21T04:30:44;99386.59;;;20.00;80.58
68107;BME280;54892;47.488;19.026;2022-08-21T04:33:47;99398.22;;;20.04;80.45
68107;BME280;54892;47.488;19.026;2022-08-21T04:36:50;99394.44;;;20.05;80.62
68107;BME280;54892;47.488;19.026;2022-08-21T04:39:53;99393.88;;;20.12;79.86
68107;BME280;54892;47.488;19.026;2022-08-21T04:43:00;99399.56;;;20.10;79.95
68107;BME280;54892;47.488;19.026;2022-08-21T04:46:04;99392.88;;;20.04;80.47
68107;BME280;54892;47.488;19.026;2022-08-21T04:49:07;99384.16;;;20.07;80.37
68107;BME280;54892;47.488;19.026;2022-08-21T04:52:10;99393.09;;;20.11;79.79
68107;BME280;54892;47.488;19.026;2022-08-21T04:55:14;99383.81;;;20.21;79.54
68107;BME280;54892;47.488;19.026;2022-08-21T04:58:19;99393.09;;;20.11;79.80
68107;BME280;54892;47.488;19.026;2022-08-21T05:01:23;99396.88;;;20.10;79.67
68107;BME280;54892;47.488;19.026;2022-08-21T05:04:29;99395.09;;;20.14;79.51
68107;BME280;54892;47.488;19.026;2022-08-21T05:07:33;99402.34;;;20.01;79.66
68107;BME280;54892;47.488;19.026;2022-08-21T05:10:39;99402.78;;;20.03;79.86
68107;BME280;54892;47.488;19.026;2022-08-21T05:13:43;99404.69;;;20.15;79.41
68107;BME280;54892;47.488;19.026;2022-08-21T05:16:46;99399.91;;;19.96;79.79
68107;BME280;54892;47.488;19.026;2022-08-21T05:19:50;99402.69;;;20.12;79.54
68107;BME280;54892;47.488;19.026;2022-08-21T05:22:54;99412.53;;;20.08;79.46
68107;BME280;54892;47.488;19.026;2022-08-21T05:25:57;99400.66;;;20.09;79.24
68107;BME280;54892;47.488;19.026;2022-08-21T05:29:01;99410.06;;;20.03;79.20
68107;BME280;54892;47.488;19.026;2022-08-21T05:32:07;99416.06;;;20.00;79.35
68107;BME280;54892;47.488;19.026;2022-08-21T05:35:10;99405.16;;;20.05;79.06
68107;BME280;54892;47.488;19.026;2022-08-21T05:38:13;99409.41;;;20.06;79.00
68107;BME280;54892;47.488;19.026;2022-08-21T05:41:17;99405.59;;;20.19;78.63
68107;BME280;54892;47.488;19.026;2022-08-21T05:44:21;99399.34;;;20.15;78.40
68107;BME280;54892;47.488;19.026;2022-08-21T05:47:25;99402.94;;;20.19;78.12
68107;BME280;54892;47.488;19.026;2022-08-21T05:50:27;99391.41;;;20.19;78.45
68107;BME280;54892;47.488;19.026;2022-08-21T05:53:33;99398.44;;;20.11;78.59
68107;BME280;54892;47.488;19.026;2022-08-21T05:56:36;99398.22;;;20.29;77.71
68107;BME280;54892;47.488;19.026;2022-08-21T05:59:41;99399.78;;;20.30;77.44
68107;BME280;54892;47.488;19.026;2022-08-21T06:02:44;99396.91;;;20.35;76.99
68107;BME280;54892;47.488;19.026;2022-08-21T06:05:47;99400.91;;;20.16;77.85
68107;BME280;54892;47.488;19.026;2022-08-21T06:08:51;99394.88;;;20.19;77.87
68107;BME280;54892;47.488;19.026;2022-08-21T06:11:54;99398.56;;;20.39;77.35
68107;BME280;54892;47.488;19.026;2022-08-21T06:14:59;99408.28;;;20.32;77.35
68107;BME280;54892;47.488;19.026;2022-08-21T06:18:01;99397.78;;;20.39;77.35
68107;BME280;54892;47.488;19.026;2022-08-21T06:21:05;99403.56;;;20.41;76.98
68107;BME280;54892;47.488;19.026;2022-08-21T06:24:09;99408.84;;;20.37;77.48
68107;BME280;54892;47.488;19.026;2022-08-21T06:27:11;99417.22;;;20.48;76.69
68107;BME280;54892;47.488;19.026;2022-08-21T06:30:16;99427.13;;;20.48;76.37
68107;BME280;54892;47.488;19.026;2022-08-21T06:33:20;99424.34;;;20.44;77.17
68107;BME280;54892;47.488;19.026;2022-08-21T06:36:24;99426.47;;;20.51;76.97
68107;BME280;54892;47.488;19.026;2022-08-21T06:39:29;99421.66;;;20.69;76.03
68107;BME280;54892;47.488;19.026;2022-08-21T06:42:32;99427.59;;;20.62;76.06
68107;BME280;54892;47.488;19.026;2022-08-21T06:45:37;99422.56;;;20.61;76.19
68107;BME280;54892;47.488;19.026;2022-08-21T06:48:40;99434.19;;;20.77;75.86
68107;BME280;54892;47.488;19.026;2022-08-21T06:51:43;99429.91;;;20.89;75.25
68107;BME280;54892;47.488;19.026;2022-08-21T06:54:46;99436.19;;;20.93;74.84
68107;BME280;54892;47.488;19.026;2022-08-21T06:57:49;99444.00;;;20.98;74.46
68107;BME280;54892;47.488;19.026;2022-08-21T07:00:54;99438.19;;;20.96;74.51
68107;BME280;54892;47.488;19.026;2022-08-21T07:04:00;99435.72;;;20.91;74.71
68107;BME280;54892;47.488;19.026;2022-08-21T07:07:03;99439.50;;;21.02;74.59
68107;BME280;54892;47.488;19.026;2022-08-21T07:10:07;99435.91;;;21.10;73.76
68107;BME280;54892;47.488;19.026;2022-08-21T07:13:10;99441.16;;;21.19;73.77
68107;BME280;54892;47.488;19.026;2022-08-21T07:16:14;99430.28;;;21.28;73.35
68107;BME280;54892;47.488;19.026;2022-08-21T07:19:17;99434.56;;;21.17;73.58
68107;BME280;54892;47.488;19.026;2022-08-21T07:22:20;99439.00;;;21.25;73.48
68107;BME280;54892;47.488;19.026;2022-08-21T07:25:24;99438.56;;;21.23;73.21
68107;BME280;54892;47.488;19.026;2022-08-21T07:28:26;99434.84;;;21.27;73.28
68107;BME280;54892;47.488;19.026;2022-08-21T07:31:31;99437.87;;;21.26;73.06
68107;BME280;54892;47.488;19.026;2022-08-21T07:34:34;99437.00;;;21.22;73.52
68107;BME280;54892;47.488;19.026;2022-08-21T07:37:37;99438.22;;;21.24;73.32
68107;BME280;54892;47.488;19.026;2022-08-21T07:40:40;99445.00;;;21.34;72.91
68107;BME280;54892;47.488;19.026;2022-08-21T07:43:44;99432.56;;;21.42;73.04
68107;BME280;54892;47.488;19.026;2022-08-21T07:46:48;99435.44;;;21.49;72.39
68107;BME280;54892;47.488;19.026;2022-08-21T07:49:51;99433.78;;;21.44;72.37
68107;BME280;54892;47.488;19.026;2022-08-21T07:52:54;99431.03;;;21.57;72.07
68107;BME280;54892;47.488;19.026;2022-08-21T07:55:58;99433.28;;;21.55;72.05
68107;BME280;54892;47.488;19.026;2022-08-21T07:59:01;99426.75;;;21.68;71.71
68107;BME280;54892;47.488;19.026;2022-08-21T08:02:06;99427.88;;;21.67;71.50
68107;BME280;54892;47.488;19.026;2022-08-21T08:05:09;99429.72;;;21.63;71.11
68107;BME280;54892;47.488;19.026;2022-08-21T08:08:13;99429.44;;;21.68;71.51
68107;BME280;54892;47.488;19.026;2022-08-21T08:11:17;99427.41;;;21.78;71.25
68107;BME280;54892;47.488;19.026;2022-08-21T08:14:21;99420.28;;;21.85;70.98
68107;BME280;54892;47.488;19.026;2022-08-21T08:17:26;99423.59;;;21.95;71.11
68107;BME280;54892;47.488;19.026;2022-08-21T08:20:30;99413.03;;;22.02;70.37
68107;BME280;54892;47.488;19.026;2022-08-21T08:23:33;99412.66;;;22.19;70.01
68107;BME280;54892;47.488;19.026;2022-08-21T08:26:37;99405.28;;;22.32;69.69
68107;BME280;54892;47.488;19.026;2022-08-21T08:29:40;99409.94;;;22.51;68.83
68107;BME280;54892;47.488;19.026;2022-08-21T08:32:45;99399.34;;;22.59;68.73
68107;BME280;54892;47.488;19.026;2022-08-21T08:35:49;99407.44;;;22.59;68.32
68107;BME280;54892;47.488;19.026;2022-08-21T08:38:52;99407.75;;;22.73;68.17
68107;BME280;54892;47.488;19.026;2022-08-21T08:41:57;99400.31;;;22.86;67.89
68107;BME280;54892;47.488;19.026;2022-08-21T08:45:04;99406.75;;;23.01;67.25
68107;BME280;54892;47.488;19.026;2022-08-21T08:48:10;99409.25;;;23.10;66.86
68107;BME280;54892;47.488;19.026;2022-08-21T08:51:16;99409.13;;;23.03;66.98
68107;BME280;54892;47.488;19.026;2022-08-21T08:54:25;99411.50;;;23.08;67.09
68107;BME280;54892;47.488;19.026;2022-08-21T08:57:33;99407.22;;;23.23;66.92
68107;BME280;54892;47.488;19.026;2022-08-21T09:00:37;99406.16;;;23.47;65.89
68107;BME280;54892;47.488;19.026;2022-08-21T09:03:42;99400.97;;;23.38;65.88
68107;BME280;54892;47.488;19.026;2022-08-21T09:06:53;99408.34;;;23.41;65.39
68107;BME280;54892;47.488;19.026;2022-08-21T09:10:03;99407.34;;;23.30;66.08
68107;BME280;54892;47.488;19.026;2022-08-21T09:13:07;99405.78;;;23.29;65.80
68107;BME280;54892;47.488;19.026;2022-08-21T09:16:16;99408.97;;;23.15;66.34
68107;BME280;54892;47.488;19.026;2022-08-21T09:19:39;99415.09;;;23.32;66.17
68107;BME280;54892;47.488;19.026;2022-08-21T09:22:50;99404.53;;;23.42;65.71
68107;BME280;54892;47.488;19.026;2022-08-21T09:25:59;99405.97;;;23.60;65.52
68107;BME280;54892;47.488;19.026;2022-08-21T09:29:03;99407.97;;;23.63;65.42
68107;BME280;54892;47.488;19.026;2022-08-21T09:32:10;99413.78;;;23.65;65.05
68107;BME280;54892;47.488;19.026;2022-08-21T09:35:17;99411.19;;;23.72;65.17
68107;BME280;54892;47.488;19.026;2022-08-21T09:38:26;99400.47;;;23.76;64.85
68107;BME280;54892;47.488;19.026;2022-08-21T09:41:30;99400.66;;;23.86;64.92
68107;BME280;54892;47.488;19.026;2022-08-21T09:44:36;99392.09;;;24.04;64.56
68107;BME280;54892;47.488;19.026;2022-08-21T09:47:41;99401.88;;;24.12;63.38
68107;BME280;54892;47.488;19.026;2022-08-21T09:50:47;99393.13;;;24.19;63.59
68107;BME280;54892;47.488;19.026;2022-08-21T09:53:51;99393.78;;;24.12;64.09
68107;BME280;54892;47.488;19.026;2022-08-21T09:56:55;99388.22;;;24.28;63.22
68107;BME280;54892;47.488;19.026;2022-08-21T10:00:18;99392.13;;;24.31;63.30
68107;BME280;54892;47.488;19.026;2022-08-21T10:03:22;99395.22;;;24.33;63.15
68107;BME280;54892;47.488;19.026;2022-08-21T10:06:28;99391.19;;;24.20;63.22
68107;BME280;54892;47.488;19.026;2022-08-21T10:09:31;99398.00;;;24.37;63.15
68107;BME280;54892;47.488;19.026;2022-08-21T10:12:41;99388.59;;;24.54;62.70
68107;BME280;54892;47.488;19.026;2022-08-21T10:15:50;99395.59;;;24.58;62.13
68107;BME280;54892;47.488;19.026;2022-08-21T10:18:56;99393.69;;;24.59;62.06
68107;BME280;54892;47.488;19.026;2022-08-21T10:22:14;99395.59;;;24.58;62.04
68107;BME280;54892;47.488;19.026;2022-08-21T10:25:21;99398.37;;;24.66;62.01
68107;BME280;54892;47.488;19.026;2022-08-21T10:28:27;99390.84;;;24.48;62.28
68107;BME280;54892;47.488;19.026;2022-08-21T10:31:35;99392.66;;;24.40;62.59
68107;BME280;54892;47.488;19.026;2022-08-21T10:34:43;99393.94;;;24.50;62.52
68107;BME280;54892;47.488;19.026;2022-08-21T10:37:59;99393.94;;;24.23;62.95
68107;BME280;54892;47.488;19.026;2022-08-21T10:41:07;99394.94;;;24.11;63.70
68107;BME280;54892;47.488;19.026;2022-08-21T10:44:17;99395.09;;;23.99;63.58
68107;BME280;54892;47.488;19.026;2022-08-21T10:47:27;99395.94;;;24.03;64.21
68107;BME280;54892;47.488;19.026;2022-08-21T10:50:31;99388.31;;;24.09;63.53
68107;BME280;54892;47.488;19.026;2022-08-21T10:53:48;99398.84;;;24.17;63.42
68107;BME280;54892;47.488;19.026;2022-08-21T10:56:58;99392.69;;;24.17;63.29
68107;BME280;54892;47.488;19.026;2022-08-21T11:00:08;99388.03;;;24.14;63.49
68107;BME280;54892;47.488;19.026;2022-08-21T11:03:13;99389.59;;;24.15;63.64
68107;BME280;54892;47.488;19.026;2022-08-21T11:06:20;99394.97;;;24.15;63.61
68107;BME280;54892;47.488;19.026;2022-08-21T11:09:27;99389.22;;;24.16;63.74
68107;BME280;54892;47.488;19.026;2022-08-21T11:12:35;99388.03;;;24.14;63.30
68107;BME280;54892;47.488;19.026;2022-08-21T11:15:43;99377.03;;;23.99;63.92
68107;BME280;54892;47.488;19.026;2022-08-21T11:18:52;99380.66;;;23.87;64.50
68107;BME280;54892;47.488;19.026;2022-08-21T11:21:58;99376.06;;;23.88;64.48
68107;BME280;54892;47.488;19.026;2022-08-21T11:25:08;99371.31;;;23.81;64.88
68107;BME280;54892;47.488;19.026;2022-08-21T11:28:13;99373.34;;;23.88;64.65
68107;BME280;54892;47.488;19.026;2022-08-21T11:31:23;99374.03;;;23.81;64.86
68107;BME280;54892;47.488;19.026;2022-08-21T11:34:33;99374.59;;;23.94;64.20
68107;BME280;54892;47.488;19.026;2022-08-21T11:37:43;99369.56;;;23.93;64.19
68107;BME280;54892;47.488;19.026;2022-08-21T11:40:54;99367.59;;;23.90;64.20
68107;BME280;54892;47.488;19.026;2022-08-21T11:44:06;99372.00;;;23.98;64.36
68107;BME280;54892;47.488;19.026;2022-08-21T11:47:11;99368.84;;;23.96;64.71
68107;BME280;54892;47.488;19.026;2022-08-21T11:50:18;99361.69;;;24.04;64.54
68107;BME280;54892;47.488;19.026;2022-08-21T11:53:24;99365.09;;;24.00;64.44
68107;BME280;54892;47.488;19.026;2022-08-21T11:56:31;99361.13;;;23.94;64.40
68107;BME280;54892;47.488;19.026;2022-08-21T11:59:37;99358.16;;;23.76;64.56
68107;BME280;54892;47.488;19.026;2022-08-21T12:02:45;99353.59;;;23.80;64.74
68107;BME280;54892;47.488;19.026;2022-08-21T12:05:52;99349.81;;;23.85;64.78
68107;BME280;54892;47.488;19.026;2022-08-21T12:08:59;99354.41;;;23.84;64.95
68107;BME280;54892;47.488;19.026;2022-08-21T12:12:05;99353.13;;;23.98;64.86
68107;BME280;54892;47.488;19.026;2022-08-21T12:18:29;99352.47;;;24.05;64.15
68107;BME280;54892;47.488;19.026;2022-08-21T12:21:33;99351.31;;;24.06;64.45
68107;BME280;54892;47.488;19.026;2022-08-21T12:24:37;99346.44;;;24.15;64.22
68107;BME280;54892;47.488;19.026;2022-08-21T12:27:44;99348.03;;;24.20;64.36
68107;BME280;54892;47.488;19.026;2022-08-21T12:30:47;99342.44;;;24.32;63.72
68107;BME280;54892;47.488;19.026;2022-08-21T12:33:57;99342.84;;;24.34;63.44
68107;BME280;54892;47.488;19.026;2022-08-21T12:37:02;99343.69;;;24.38;63.46
68107;BME280;54892;47.488;19.026;2022-08-21T12:40:10;99335.66;;;24.45;63.20
68107;BME280;54892;47.488;19.026;2022-08-21T12:43:19;99338.94;;;24.28;63.24
68107;BME280;54892;47.488;19.026;2022-08-21T12:46:25;99338.66;;;24.37;63.25
68107;BME280;54892;47.488;19.026;2022-08-21T12:49:31;99336.00;;;24.40;63.45
68107;BME280;54892;47.488;19.026;2022-08-21T12:52:39;99323.00;;;24.50;63.26
68107;BME280;54892;47.488;19.026;2022-08-21T12:55:43;99329.97;;;24.51;63.18
68107;BME280;54892;47.488;19.026;2022-08-21T12:58:49;99336.09;;;24.47;62.93
68107;BME280;54892;47.488;19.026;2022-08-21T13:01:52;99330.16;;;24.35;63.73
68107;BME280;54892;47.488;19.026;2022-08-21T13:04:57;99325.75;;;24.23;63.92
68107;BME280;54892;47.488;19.026;2022-08-21T13:08:03;99325.75;;;24.23;64.01
68107;BME280;54892;47.488;19.026;2022-08-21T13:11:07;99322.13;;;24.11;64.11
68107;BME280;54892;47.488;19.026;2022-08-21T13:14:14;99317.53;;;24.15;64.12
68107;BME280;54892;47.488;19.026;2022-08-21T13:17:20;99309.78;;;24.10;64.41
68107;BME280;54892;47.488;19.026;2022-08-21T13:20:25;99309.69;;;24.03;65.67
68107;BME280;54892;47.488;19.026;2022-08-21T13:23:30;99308.25;;;23.86;66.32
68107;BME280;54892;47.488;19.026;2022-08-21T13:26:33;99312.69;;;23.75;67.16
68107;BME280;54892;47.488;19.026;2022-08-21T13:29:38;99316.53;;;23.74;68.48
68107;BME280;54892;47.488;19.026;2022-08-21T13:32:42;99317.13;;;23.63;69.44
68107;BME280;54892;47.488;19.026;2022-08-21T13:35:47;99324.13;;;23.45;73.12
68107;BME280;54892;47.488;19.026;2022-08-21T13:38:52;99321.75;;;23.20;75.63
68107;BME280;54892;47.488;19.026;2022-08-21T13:41:56;99322.47;;;22.97;77.34
68107;BME280;54892;47.488;19.026;2022-08-21T13:45:01;99328.16;;;22.92;79.38
68107;BME280;54892;47.488;19.026;2022-08-21T13:48:04;99327.03;;;22.73;78.89
68107;BME280;54892;47.488;19.026;2022-08-21T13:51:08;99324.81;;;22.59;79.74
68107;BME280;54892;47.488;19.026;2022-08-21T13:54:21;99323.13;;;22.51;80.61
68107;BME280;54892;47.488;19.026;2022-08-21T13:57:27;99341.69;;;22.40;80.90
68107;BME280;54892;47.488;19.026;2022-08-21T14:00:33;99332.16;;;22.43;80.55
68107;BME280;54892;47.488;19.026;2022-08-21T14:03:41;99332.44;;;22.38;78.08
68107;BME280;54892;47.488;19.026;2022-08-21T14:06:45;99326.03;;;22.26;80.37
68107;BME280;54892;47.488;19.026;2022-08-21T14:09:48;99322.75;;;22.17;80.97
68107;BME280;54892;47.488;19.026;2022-08-21T14:12:52;99326.84;;;22.11;81.38
68107;BME280;54892;47.488;19.026;2022-08-21T14:15:58;99322.87;;;22.04;80.93
68107;BME280;54892;47.488;19.026;2022-08-21T14:19:07;99322.28;;;21.95;82.33
68107;BME280;54892;47.488;19.026;2022-08-21T14:22:37;99325.91;;;21.87;83.37
68107;BME280;54892;47.488;19.026;2022-08-21T14:25:41;99323.66;;;21.89;83.25
68107;BME280;54892;47.488;19.026;2022-08-21T14:28:45;99317.50;;;21.88;84.24
68107;BME280;54892;47.488;19.026;2022-08-21T14:31:51;99323.31;;;21.90;83.97
68107;BME280;54892;47.488;19.026;2022-08-21T14:34:55;99315.50;;;22.01;80.93
68107;BME280;54892;47.488;19.026;2022-08-21T14:37:59;99321.41;;;21.91;82.56
68107;BME280;54892;47.488;19.026;2022-08-21T14:41:03;99331.34;;;21.90;82.59
68107;BME280;54892;47.488;19.026;2022-08-21T14:44:08;99320.72;;;21.94;83.24
68107;BME280;54892;47.488;19.026;2022-08-21T14:47:13;99319.78;;;21.86;82.18
68107;BME280;54892;47.488;19.026;2022-08-21T14:50:16;99326.00;;;21.90;82.93
68107;BME280;54892;47.488;19.026;2022-08-21T14:53:20;99328.53;;;21.83;82.95
68107;BME280;54892;47.488;19.026;2022-08-21T14:56:23;99320.19;;;21.88;82.54
68107;BME280;54892;47.488;19.026;2022-08-21T14:59:27;99313.59;;;21.86;82.49
68107;BME280;54892;47.488;19.026;2022-08-21T15:02:33;99305.72;;;21.93;80.81
68107;BME280;54892;47.488;19.026;2022-08-21T15:05:37;99297.81;;;22.00;79.97
68107;BME280;54892;47.488;19.026;2022-08-21T15:08:40;99307.50;;;22.05;80.20
68107;BME280;54892;47.488;19.026;2022-08-21T15:11:43;99304.81;;;22.05;80.12
68107;BME280;54892;47.488;19.026;2022-08-21T15:14:46;99308.47;;;21.97;80.20
68107;BME280;54892;47.488;19.026;2022-08-21T15:17:51;99306.22;;;21.99;79.44
68107;BME280;54892;47.488;19.026;2022-08-21T15:20:55;99303.03;;;21.93;80.36
68107;BME280;54892;47.488;19.026;2022-08-21T15:23:58;99298.00;;;21.92;81.35
68107;BME280;54892;47.488;19.026;2022-08-21T15:27:02;99309.09;;;21.90;81.86
68107;BME280;54892;47.488;19.026;2022-08-21T15:30:06;99310.16;;;21.85;81.63
68107;BME280;54892;47.488;19.026;2022-08-21T15:33:11;99309.53;;;21.92;80.19
68107;BME280;54892;47.488;19.026;2022-08-21T15:36:14;99304.16;;;21.92;79.96
68107;BME280;54892;47.488;19.026;2022-08-21T15:39:18;99306.84;;;21.92;79.50
68107;BME280;54892;47.488;19.026;2022-08-21T15:42:21;99303.38;;;21.92;79.20
68107;BME280;54892;47.488;19.026;2022-08-21T15:45:25;99307.09;;;21.87;80.30
68107;BME280;54892;47.488;19.026;2022-08-21T15:48:30;99304.69;;;21.82;80.40
68107;BME280;54892;47.488;19.026;2022-08-21T15:51:33;99299.03;;;21.87;80.22
68107;BME280;54892;47.488;19.026;2022-08-21T15:54:39;99297.50;;;21.86;80.77
68107;BME280;54892;47.488;19.026;2022-08-21T15:57:43;99298.91;;;21.80;81.10
68107;BME280;54892;47.488;19.026;2022-08-21T16:00:47;99297.94;;;21.72;81.38
68107;BME280;54892;47.488;19.026;2022-08-21T16:03:52;99307.75;;;21.64;82.79
68107;BME280;54892;47.488;19.026;2022-08-21T16:06:56;99304.19;;;21.60;80.69
68107;BME280;54892;47.488;19.026;2022-08-21T16:10:04;99305.47;;;21.66;81.08